Terminal Aerodrome Forecast
Issued by NWS

Home | Current Version | Previous Version | Text Only | Print | Product List | Glossary On
Versions: 1 2 3 4 5 6 7 8 9 10 11 12 13 14 15 16 17 18 19 20 21 22 23 24 25 26
000
FTUS43 KDLH 151400 AAA
TAFBRD
TAF AMD
KBRD 151450Z 1515/1612 35006KT P6SM SKC
     FM151800 VRB05KT P6SM SCT040 SCT300
     FM160100 15006KT P6SM SCT050 SCT110 OVC180
     FM160400 11008KT P6SM SCT040 BKN070 OVC120
      TEMPO 1608/1611 5SM -SHSN BKN028 OVC050
     FM161100 09013KT 1 1/2SM -SN BKN014 OVC028=

USA.gov is the U.S. government's official web portal to all federal, state and local government web resources and services.